Time;durP1;ratioP1;P1;durP2;ratioP2;P2;SDS_P1;SDS_P2;PMS_P1;PMS_P2;Temp;Humidity;BMP_temperature;BMP_pressure;BME280_temperature;BME280_humidity;BME280_pressure;Samples;Min_cycle;Max_cycle;Signal;HPM_P1;HPM_P2
2023/03/16 00:00:39;;;;;;;11.48;10.02;;;;;;;;;;5090042;28;20070;-78
2023/03/16 00:03:05;;;;;;;15.25;11.05;;;;;;;;;;5092245;28;20024;-80
2023/03/16 00:05:30;;;;;;;11.43;9.05;;;;;;;;;;5100165;28;20038;-78
2023/03/16 00:07:56;;;;;;;33.00;23.75;;;;;;;;;;5091208;28;20437;-78
2023/03/16 00:10:26;;;;;;;7.18;5.68;;;;;;;;;;5095588;28;20035;-79
2023/03/16 00:12:52;;;;;;;6.28;5.68;;;;;;;;;;5099288;28;20323;-79
2023/03/16 00:15:17;;;;;;;9.77;8.27;;;;;;;;;;5089764;28;20082;-79
2023/03/16 00:17:47;;;;;;;13.55;11.02;;;;;;;;;;5091257;28;20058;-81
2023/03/16 00:20:16;;;;;;;11.40;9.10;;;;;;;;;;5094551;28;21017;-78
2023/03/16 00:22:41;;;;;;;8.48;7.00;;;;;;;;;;5093267;28;20046;-79
2023/03/16 00:25:07;;;;;;;12.32;10.60;;;;;;;;;;5089177;28;20020;-79
2023/03/16 00:27:32;;;;;;;5.97;5.38;;;;;;;;;;5097651;28;20435;-78
2023/03/16 00:29:58;;;;;;;7.07;5.22;;;;;;;;;;5093228;28;20028;-79
2023/03/16 00:32:27;;;;;;;11.75;9.77;;;;;;;;;;5085892;27;20335;-79
2023/03/16 00:34:53;;;;;;;14.77;9.82;;;;;;;;;;5097196;28;20094;-78
2023/03/16 00:37:19;;;;;;;14.23;8.18;;;;;;;;;;5098654;28;20032;-79
2023/03/16 00:39:45;;;;;;;10.93;8.30;;;;;;;;;;5096292;28;20026;-76
2023/03/16 00:42:11;;;;;;;6.75;5.22;;;;;;;;;;5089656;28;20028;-76
2023/03/16 00:44:37;;;;;;;10.32;8.50;;;;;;;;;;5096115;28;20056;-80
2023/03/16 00:47:02;;;;;;;6.30;5.13;;;;;;;;;;5085580;28;20064;-79
2023/03/16 00:49:28;;;;;;;12.85;10.35;;;;;;;;;;5095693;28;20335;-79
2023/03/16 00:51:53;;;;;;;9.93;8.50;;;;;;;;;;5097978;28;20496;-79
2023/03/16 00:54:18;;;;;;;8.73;7.82;;;;;;;;;;5096337;28;20031;-80
2023/03/16 00:56:44;;;;;;;22.85;19.15;;;;;;;;;;5097895;28;20015;-78
2023/03/16 00:59:11;;;;;;;4.38;3.45;;;;;;;;;;5092364;28;20495;-79
2023/03/16 01:01:37;;;;;;;17.45;12.65;;;;;;;;;;5085389;28;20024;-78
2023/03/16 01:04:02;;;;;;;20.00;15.23;;;;;;;;;;5089144;27;20051;-79
2023/03/16 01:06:27;;;;;;;15.50;13.32;;;;;;;;;;5092793;28;20146;-78
2023/03/16 01:08:53;;;;;;;51.45;45.85;;;;;;;;;;5098197;28;20093;-81
2023/03/16 01:11:19;;;;;;;61.28;49.80;;;;;;;;;;5086356;28;20463;-80
2023/03/16 01:13:48;;;;;;;27.75;18.90;;;;;;;;;;5098176;28;20078;-80
2023/03/16 01:16:21;;;;;;;6.40;4.90;;;;;;;;;;5093954;28;20023;-81
2023/03/16 01:18:47;;;;;;;21.70;14.38;;;;;;;;;;5092114;28;20050;-78
2023/03/16 01:21:12;;;;;;;11.98;8.00;;;;;;;;;;5088194;28;20023;-80
2023/03/16 01:23:38;;;;;;;24.45;21.75;;;;;;;;;;5088960;28;20035;-77
2023/03/16 01:26:03;;;;;;;16.55;14.82;;;;;;;;;;5098046;28;20027;-80
2023/03/16 01:28:30;;;;;;;27.27;19.52;;;;;;;;;;5098011;28;20058;-77
2023/03/16 01:30:59;;;;;;;11.77;8.82;;;;;;;;;;5089092;28;20115;-81
2023/03/16 01:33:25;;;;;;;8.07;6.70;;;;;;;;;;5096586;28;20020;-78
2023/03/16 01:35:54;;;;;;;7.22;5.82;;;;;;;;;;5087551;28;20027;-79
2023/03/16 01:38:20;;;;;;;7.40;5.30;;;;;;;;;;5092853;28;20052;-78
2023/03/16 01:40:49;;;;;;;8.48;6.47;;;;;;;;;;5096852;28;20442;-77
2023/03/16 01:43:15;;;;;;;21.92;17.05;;;;;;;;;;5096511;28;20020;-78
2023/03/16 01:45:59;;;;;;;10.43;8.60;;;;;;;;;;5088785;28;20027;-79
2023/03/16 01:48:25;;;;;;;9.85;7.03;;;;;;;;;;5095260;28;20020;-78
2023/03/16 01:50:54;;;;;;;16.60;12.23;;;;;;;;;;5088595;28;20085;-78
2023/03/16 01:53:20;;;;;;;18.80;13.67;;;;;;;;;;5091768;28;20107;-79
2023/03/16 01:55:47;;;;;;;22.38;17.60;;;;;;;;;;5086581;28;20020;-79
2023/03/16 01:58:13;;;;;;;16.30;12.55;;;;;;;;;;5089285;28;20016;-80
2023/03/16 02:00:40;;;;;;;11.77;9.10;;;;;;;;;;5088348;28;20088;-78
2023/03/16 02:03:13;;;;;;;15.25;12.68;;;;;;;;;;5088956;28;20019;-79
2023/03/16 02:05:41;;;;;;;24.23;21.75;;;;;;;;;;5087226;28;20019;-79
2023/03/16 02:08:07;;;;;;;10.15;9.15;;;;;;;;;;5094257;28;20161;-79
2023/03/16 02:10:32;;;;;;;12.10;10.52;;;;;;;;;;5090891;28;20031;-80
2023/03/16 02:12:58;;;;;;;17.40;12.85;;;;;;;;;;5090394;28;20024;-78
2023/03/16 02:15:23;;;;;;;4.93;4.20;;;;;;;;;;5128701;27;20020;-80
2023/03/16 02:17:49;;;;;;;10.93;8.85;;;;;;;;;;5086859;28;20031;-79
2023/03/16 02:20:24;;;;;;;17.13;12.90;;;;;;;;;;5093899;28;20080;-78
2023/03/16 02:22:53;;;;;;;6.50;4.88;;;;;;;;;;5092422;28;20093;-79
2023/03/16 02:25:20;;;;;;;14.67;9.80;;;;;;;;;;5090783;28;20061;-78
2023/03/16 02:27:50;;;;;;;26.45;14.60;;;;;;;;;;5086267;28;20780;-77
2023/03/16 02:30:16;;;;;;;30.80;18.08;;;;;;;;;;5088651;28;20102;-78
2023/03/16 02:32:43;;;;;;;7.47;4.80;;;;;;;;;;5094075;28;20111;-77
2023/03/16 02:35:09;;;;;;;5.25;4.07;;;;;;;;;;5098409;28;20027;-78
2023/03/16 02:37:34;;;;;;;7.22;4.78;;;;;;;;;;5089562;28;20032;-78
2023/03/16 02:40:00;;;;;;;10.98;7.63;;;;;;;;;;5088524;28;20062;-77
2023/03/16 02:42:27;;;;;;;12.85;8.13;;;;;;;;;;5093517;28;20032;-77
2023/03/16 02:44:56;;;;;;;20.88;13.43;;;;;;;;;;5091477;28;20043;-79
2023/03/16 02:47:25;;;;;;;10.45;7.13;;;;;;;;;;5085423;28;20038;-78
2023/03/16 02:49:51;;;;;;;7.60;5.28;;;;;;;;;;5091229;28;20032;-78
2023/03/16 02:52:16;;;;;;;7.15;5.93;;;;;;;;;;5094873;28;20023;-79
2023/03/16 02:54:41;;;;;;;5.03;3.67;;;;;;;;;;5096271;28;20050;-78
2023/03/16 02:57:07;;;;;;;17.08;10.90;;;;;;;;;;5092494;28;20087;-77
2023/03/16 02:59:32;;;;;;;11.93;7.15;;;;;;;;;;5086137;28;20871;-80
2023/03/16 03:01:57;;;;;;;10.73;6.68;;;;;;;;;;5088147;28;20402;-78
2023/03/16 03:04:23;;;;;;;5.18;4.60;;;;;;;;;;5097295;28;20059;-77
2023/03/16 03:06:50;;;;;;;15.88;9.65;;;;;;;;;;5086110;28;20060;-77
2023/03/16 03:09:15;;;;;;;4.47;3.53;;;;;;;;;;5096454;28;20156;-79
2023/03/16 03:11:40;;;;;;;7.88;5.80;;;;;;;;;;5094221;28;20421;-78
2023/03/16 03:14:06;;;;;;;7.47;5.70;;;;;;;;;;5094015;28;20031;-78
2023/03/16 03:16:31;;;;;;;3.28;2.63;;;;;;;;;;5089637;28;20023;-78
2023/03/16 03:18:57;;;;;;;17.40;10.57;;;;;;;;;;5094040;28;20106;-76
2023/03/16 03:21:22;;;;;;;29.48;16.48;;;;;;;;;;5090001;28;20382;-78
2023/03/16 03:23:48;;;;;;;32.17;17.95;;;;;;;;;;5099920;28;20035;-79
2023/03/16 03:26:14;;;;;;;15.05;9.35;;;;;;;;;;5097534;28;20424;-78
2023/03/16 03:28:40;;;;;;;20.10;12.25;;;;;;;;;;5092088;27;20431;-77
2023/03/16 03:31:05;;;;;;;15.32;10.13;;;;;;;;;;5095179;28;20060;-78
2023/03/16 03:33:32;;;;;;;3.55;2.70;;;;;;;;;;5090893;28;20028;-76
2023/03/16 03:35:58;;;;;;;11.13;6.68;;;;;;;;;;5094639;28;20012;-76
2023/03/16 03:38:24;;;;;;;8.18;5.93;;;;;;;;;;5093138;28;20423;-77
2023/03/16 03:40:50;;;;;;;8.32;6.50;;;;;;;;;;5097574;28;20027;-77
2023/03/16 03:43:15;;;;;;;4.18;3.22;;;;;;;;;;5099006;28;20020;-77
2023/03/16 03:45:41;;;;;;;7.03;5.63;;;;;;;;;;5100597;28;20031;-78
2023/03/16 03:48:06;;;;;;;7.22;4.93;;;;;;;;;;5098910;28;20031;-78
2023/03/16 03:50:31;;;;;;;3.70;3.20;;;;;;;;;;5095735;28;20085;-79
2023/03/16 03:52:57;;;;;;;5.53;3.95;;;;;;;;;;5085909;28;20110;-77
2023/03/16 03:55:22;;;;;;;6.35;4.40;;;;;;;;;;5099548;28;20036;-80
2023/03/16 03:57:47;;;;;;;6.95;6.25;;;;;;;;;;5099571;28;20055;-80
2023/03/16 04:00:13;;;;;;;5.18;4.68;;;;;;;;;;5099141;28;20122;-79
2023/03/16 04:02:39;;;;;;;3.10;2.80;;;;;;;;;;5096946;28;20087;-80
2023/03/16 04:05:05;;;;;;;3.97;3.25;;;;;;;;;;5098036;28;20024;-79
2023/03/16 04:07:30;;;;;;;2.92;2.28;;;;;;;;;;5099463;27;20055;-79
2023/03/16 04:09:55;;;;;;;2.80;2.60;;;;;;;;;;5084651;28;20043;-77
2023/03/16 04:12:21;;;;;;;3.45;2.78;;;;;;;;;;5086152;28;20024;-78
2023/03/16 04:14:46;;;;;;;3.42;1.85;;;;;;;;;;5081093;28;20382;-78
2023/03/16 04:17:11;;;;;;;3.10;2.75;;;;;;;;;;5085615;28;20076;-79
2023/03/16 04:19:37;;;;;;;2.85;2.47;;;;;;;;;;5098801;28;20073;-78
2023/03/16 04:22:02;;;;;;;2.05;1.25;;;;;;;;;;5099365;28;20323;-78
2023/03/16 04:24:27;;;;;;;2.13;1.98;;;;;;;;;;5091817;28;20023;-78
2023/03/16 04:26:53;;;;;;;5.10;4.28;;;;;;;;;;5095520;28;20049;-78
2023/03/16 04:29:18;;;;;;;4.50;3.83;;;;;;;;;;5098858;28;20085;-80
2023/03/16 04:31:44;;;;;;;3.03;2.80;;;;;;;;;;5098869;28;20131;-80
2023/03/16 04:34:10;;;;;;;9.52;8.63;;;;;;;;;;5099578;28;20052;-80
2023/03/16 04:36:35;;;;;;;6.18;5.57;;;;;;;;;;5089949;28;20024;-76
2023/03/16 04:39:01;;;;;;;6.47;5.00;;;;;;;;;;5088283;28;20535;-78
2023/03/16 04:41:26;;;;;;;8.40;7.40;;;;;;;;;;5084825;28;20019;-78
2023/03/16 04:43:51;;;;;;;7.32;5.28;;;;;;;;;;5080927;28;20430;-77
2023/03/16 04:46:17;;;;;;;4.35;3.95;;;;;;;;;;5084483;28;20023;-78
2023/03/16 04:48:42;;;;;;;4.10;3.67;;;;;;;;;;5085843;28;20026;-79
2023/03/16 04:51:07;;;;;;;15.90;10.10;;;;;;;;;;5085395;28;20461;-80
2023/03/16 04:53:33;;;;;;;15.80;11.82;;;;;;;;;;5085127;28;20032;-77
2023/03/16 04:55:58;;;;;;;17.20;10.38;;;;;;;;;;5083029;28;20347;-78
2023/03/16 04:58:24;;;;;;;15.25;7.57;;;;;;;;;;5084484;27;20031;-77
2023/03/16 05:00:54;;;;;;;10.63;6.40;;;;;;;;;;5090696;28;20039;-77
2023/03/16 05:03:20;;;;;;;;;;;;;;;;;;5096995;27;20469;-78
2023/03/16 05:05:46;;;;;;;5.75;4.22;;;;;;;;;;5096780;28;19909;-77
2023/03/16 05:08:11;;;;;;;11.40;7.03;;;;;;;;;;5095577;28;20115;-78
2023/03/16 05:10:36;;;;;;;8.30;5.28;;;;;;;;;;5099476;28;20081;-79
2023/03/16 05:13:02;;;;;;;19.08;13.50;;;;;;;;;;5097344;28;20032;-78
2023/03/16 05:15:27;;;;;;;10.10;7.85;;;;;;;;;;5097937;28;20020;-78
2023/03/16 05:17:56;;;;;;;24.02;19.63;;;;;;;;;;5099221;28;20031;-77
2023/03/16 05:20:21;;;;;;;60.50;46.42;;;;;;;;;;5084193;28;20065;-78
2023/03/16 05:22:47;;;;;;;22.38;18.13;;;;;;;;;;5094377;28;20577;-78
2023/03/16 05:25:13;;;;;;;120.57;59.10;;;;;;;;;;5093292;28;20054;-81
2023/03/16 05:27:49;;;;;;;154.90;75.03;;;;;;;;;;5085756;28;20034;-78
2023/03/16 05:30:15;;;;;;;145.90;86.82;;;;;;;;;;5094060;28;20110;-79
2023/03/16 05:32:40;;;;;;;12.52;10.75;;;;;;;;;;5095555;28;20106;-78
2023/03/16 05:35:06;;;;;;;7.45;6.72;;;;;;;;;;5093063;28;20024;-79
2023/03/16 05:37:32;;;;;;;15.23;10.35;;;;;;;;;;5092832;28;20044;-81
2023/03/16 05:39:57;;;;;;;13.98;10.75;;;;;;;;;;5097344;28;20035;-81
2023/03/16 05:42:25;;;;;;;5.70;4.53;;;;;;;;;;5128883;27;20035;-79
2023/03/16 05:44:51;;;;;;;8.80;5.70;;;;;;;;;;5091155;28;20031;-78
2023/03/16 05:47:16;;;;;;;18.05;16.40;;;;;;;;;;5084979;28;20023;-80
2023/03/16 05:49:41;;;;;;;6.18;5.63;;;;;;;;;;5097434;28;20451;-82
2023/03/16 05:52:06;;;;;;;11.25;10.05;;;;;;;;;;5098740;28;20094;-80
2023/03/16 05:54:32;;;;;;;7.95;6.63;;;;;;;;;;5098604;28;20130;-77
2023/03/16 05:56:58;;;;;;;12.38;9.25;;;;;;;;;;5095562;28;20030;-80
2023/03/16 05:59:23;;;;;;;38.47;29.48;;;;;;;;;;5096974;28;20032;-81
2023/03/16 06:01:49;;;;;;;32.67;24.35;;;;;;;;;;5089604;28;20165;-81
2023/03/16 06:04:14;;;;;;;93.85;55.05;;;;;;;;;;5090316;28;20119;-78
2023/03/16 06:06:39;;;;;;;94.75;52.88;;;;;;;;;;5090320;28;20048;-77
2023/03/16 06:09:05;;;;;;;82.65;60.72;;;;;;;;;;5086706;28;20098;-80
2023/03/16 06:11:31;;;;;;;63.28;45.13;;;;;;;;;;5094140;28;20477;-76
2023/03/16 06:13:57;;;;;;;17.20;12.93;;;;;;;;;;5088928;28;20589;-76
2023/03/16 06:16:22;;;;;;;20.75;16.88;;;;;;;;;;5090337;28;20110;-77
2023/03/16 06:18:48;;;;;;;29.77;26.63;;;;;;;;;;5085325;28;20055;-78
2023/03/16 06:21:13;;;;;;;17.90;13.38;;;;;;;;;;5084173;28;20069;-76
2023/03/16 06:23:38;;;;;;;16.77;13.63;;;;;;;;;;5082684;28;20359;-77
2023/03/16 06:26:04;;;;;;;7.40;6.65;;;;;;;;;;5083979;28;20034;-77
2023/03/16 06:28:29;;;;;;;15.00;13.43;;;;;;;;;;5093506;28;20787;-77
2023/03/16 06:30:55;;;;;;;10.18;8.73;;;;;;;;;;5097485;28;20271;-77
2023/03/16 06:33:20;;;;;;;15.75;14.27;;;;;;;;;;5096027;28;20378;-78
2023/03/16 06:35:47;;;;;;;11.80;10.57;;;;;;;;;;5097523;28;20032;-80
2023/03/16 06:38:12;;;;;;;11.23;10.02;;;;;;;;;;5093267;28;20037;-78
2023/03/16 06:40:37;;;;;;;11.55;9.68;;;;;;;;;;5098356;28;20446;-78
2023/03/16 06:43:03;;;;;;;4.53;4.13;;;;;;;;;;5095134;28;20324;-77
2023/03/16 06:45:28;;;;;;;7.15;6.40;;;;;;;;;;5096868;28;20034;-77
2023/03/16 06:47:53;;;;;;;4.47;4.07;;;;;;;;;;5095423;28;20027;-78
2023/03/16 06:50:19;;;;;;;5.82;5.22;;;;;;;;;;5085387;28;20132;-77
2023/03/16 06:52:45;;;;;;;5.45;4.95;;;;;;;;;;5097586;28;21830;-79
2023/03/16 06:55:11;;;;;;;6.97;6.28;;;;;;;;;;5090548;28;20023;-79
2023/03/16 06:57:37;;;;;;;7.97;6.28;;;;;;;;;;5096602;28;20545;-78
2023/03/16 07:00:03;;;;;;;12.38;11.18;;;;;;;;;;5099879;28;20110;-78
2023/03/16 07:02:28;;;;;;;3.47;3.17;;;;;;;;;;5089387;28;20087;-78
2023/03/16 07:04:54;;;;;;;16.50;13.68;;;;;;;;;;5087446;28;20027;-79
2023/03/16 07:07:19;;;;;;;7.43;6.80;;;;;;;;;;5087118;28;20071;-79
2023/03/16 07:09:44;;;;;;;8.98;8.07;;;;;;;;;;5087563;28;20339;-77
2023/03/16 07:12:10;;;;;;;15.30;12.60;;;;;;;;;;5088932;28;20028;-79
2023/03/16 07:14:35;;;;;;;7.30;6.60;;;;;;;;;;5093924;28;20024;-78
2023/03/16 07:17:01;;;;;;;8.77;8.07;;;;;;;;;;5098943;28;20031;-78
2023/03/16 07:19:26;;;;;;;6.10;5.60;;;;;;;;;;5098380;28;20044;-78
2023/03/16 07:21:52;;;;;;;10.40;9.32;;;;;;;;;;5099215;28;20421;-76
2023/03/16 07:24:17;;;;;;;75.35;59.30;;;;;;;;;;5085600;28;20036;-76
2023/03/16 07:26:42;;;;;;;28.80;25.73;;;;;;;;;;5090755;28;20081;-78
2023/03/16 07:29:08;;;;;;;27.65;24.73;;;;;;;;;;5099947;28;20031;-77
2023/03/16 07:31:34;;;;;;;34.03;30.33;;;;;;;;;;5097807;28;20031;-76
2023/03/16 07:34:01;;;;;;;23.25;20.60;;;;;;;;;;5093537;28;20032;-77
2023/03/16 07:36:26;;;;;;;26.55;23.65;;;;;;;;;;5087337;27;20055;-78
2023/03/16 07:38:52;;;;;;;7.20;6.60;;;;;;;;;;5087383;28;20454;-76
2023/03/16 07:41:17;;;;;;;14.93;13.48;;;;;;;;;;5098868;28;20023;-77
2023/03/16 07:43:45;;;;;;;9.60;8.57;;;;;;;;;;5096310;28;20148;-78
2023/03/16 07:46:13;;;;;;;5.88;5.38;;;;;;;;;;5099356;28;20023;-76
2023/03/16 07:48:39;;;;;;;5.35;4.93;;;;;;;;;;5095426;28;20028;-79
2023/03/16 07:51:05;;;;;;;9.25;8.45;;;;;;;;;;5087450;28;20783;-77
2023/03/16 07:53:30;;;;;;;6.60;6.10;;;;;;;;;;5085765;28;20027;-76
2023/03/16 07:55:56;;;;;;;5.43;5.00;;;;;;;;;;5084005;28;20458;-78
2023/03/16 07:58:21;;;;;;;11.32;10.23;;;;;;;;;;5083473;28;20124;-78
2023/03/16 08:00:47;;;;;;;15.55;13.90;;;;;;;;;;5084793;28;20120;-77
2023/03/16 08:03:12;;;;;;;15.93;13.80;;;;;;;;;;5085032;28;20067;-76
2023/03/16 08:05:38;;;;;;;22.55;20.15;;;;;;;;;;5082862;28;20023;-78
2023/03/16 08:08:03;;;;;;;25.10;22.45;;;;;;;;;;5083818;28;20020;-76
2023/03/16 08:10:29;;;;;;;28.08;24.15;;;;;;;;;;5084425;28;20114;-77
2023/03/16 08:12:54;;;;;;;16.00;14.43;;;;;;;;;;5085583;28;20035;-77
2023/03/16 08:15:20;;;;;;;15.80;13.43;;;;;;;;;;5083272;28;20078;-77
2023/03/16 08:17:46;;;;;;;9.65;8.75;;;;;;;;;;5082846;28;20022;-76
2023/03/16 08:20:13;;;;;;;10.55;9.65;;;;;;;;;;5082014;28;20446;-78
2023/03/16 08:22:39;;;;;;;24.55;19.35;;;;;;;;;;5081920;28;20508;-78
2023/03/16 08:25:05;;;;;;;13.23;11.93;;;;;;;;;;5081823;28;20024;-77
2023/03/16 08:27:30;;;;;;;8.40;7.47;;;;;;;;;;5081328;28;20046;-78
2023/03/16 08:29:56;;;;;;;29.35;21.85;;;;;;;;;;5084633;28;20031;-76
2023/03/16 08:32:21;;;;;;;15.18;13.50;;;;;;;;;;5090968;28;20105;-76
2023/03/16 08:34:47;;;;;;;21.80;18.38;;;;;;;;;;5084023;28;20027;-75
2023/03/16 08:37:13;;;;;;;10.70;9.15;;;;;;;;;;5091164;28;20024;-75
2023/03/16 08:39:42;;;;;;;11.43;10.32;;;;;;;;;;5085962;28;20030;-74
2023/03/16 08:42:08;;;;;;;20.33;17.60;;;;;;;;;;5084201;28;20064;-77
2023/03/16 08:44:35;;;;;;;24.38;19.17;;;;;;;;;;5085239;28;20063;-74
2023/03/16 08:47:00;;;;;;;9.60;8.73;;;;;;;;;;5085992;28;20111;-75
2023/03/16 08:49:26;;;;;;;8.52;7.68;;;;;;;;;;5085202;28;20104;-74
2023/03/16 08:51:51;;;;;;;10.40;9.40;;;;;;;;;;5085917;28;20028;-74
2023/03/16 08:54:16;;;;;;;12.23;11.02;;;;;;;;;;5083734;28;20427;-76
2023/03/16 08:56:42;;;;;;;21.98;18.85;;;;;;;;;;5083734;28;20380;-74
2023/03/16 08:59:07;;;;;;;13.70;12.13;;;;;;;;;;5085482;28;20031;-75
2023/03/16 09:01:33;;;;;;;8.52;7.72;;;;;;;;;;5085144;28;20028;-75
2023/03/16 09:03:59;;;;;;;15.73;13.73;;;;;;;;;;5085548;28;20127;-74
2023/03/16 09:06:25;;;;;;;7.70;6.90;;;;;;;;;;5083025;28;20446;-74
2023/03/16 09:08:50;;;;;;;16.00;13.90;;;;;;;;;;5086391;28;20051;-74
2023/03/16 09:11:17;;;;;;;16.08;14.38;;;;;;;;;;5084240;28;20040;-75
2023/03/16 09:13:43;;;;;;;13.00;11.70;;;;;;;;;;5081826;28;20081;-74
2023/03/16 09:16:09;;;;;;;9.48;8.57;;;;;;;;;;5083483;28;20035;-74
2023/03/16 09:18:35;;;;;;;12.85;11.65;;;;;;;;;;5085622;28;20023;-74
2023/03/16 09:21:01;;;;;;;11.70;10.50;;;;;;;;;;5084572;27;20028;-76
2023/03/16 09:23:28;;;;;;;15.73;14.02;;;;;;;;;;5084903;28;20095;-74
2023/03/16 09:25:56;;;;;;;13.32;11.93;;;;;;;;;;5085497;28;20016;-74
2023/03/16 09:28:21;;;;;;;17.45;15.73;;;;;;;;;;5083641;28;20046;-75
2023/03/16 09:30:48;;;;;;;14.00;12.60;;;;;;;;;;5084438;28;20446;-75
2023/03/16 09:33:14;;;;;;;8.68;7.90;;;;;;;;;;5085567;28;20034;-74
2023/03/16 09:35:39;;;;;;;13.05;11.75;;;;;;;;;;5082388;28;20024;-72
2023/03/16 09:38:04;;;;;;;14.07;12.80;;;;;;;;;;5084043;28;21357;-74
2023/03/16 09:40:30;;;;;;;12.98;11.77;;;;;;;;;;5084205;28;20035;-74
2023/03/16 09:43:14;;;;;;;13.25;12.05;;;;;;;;;;5085271;28;20046;-74
2023/03/16 09:45:45;;;;;;;11.40;10.35;;;;;;;;;;5083798;28;20100;-77
2023/03/16 09:48:11;;;;;;;14.15;12.63;;;;;;;;;;5084504;28;20092;-75
2023/03/16 09:50:38;;;;;;;12.80;11.50;;;;;;;;;;5084331;28;20466;-76
2023/03/16 09:53:03;;;;;;;11.43;10.32;;;;;;;;;;5084653;28;20100;-74
2023/03/16 09:55:30;;;;;;;15.15;13.45;;;;;;;;;;5083902;28;20035;-74
2023/03/16 09:57:57;;;;;;;23.08;19.92;;;;;;;;;;5083527;28;20778;-75
2023/03/16 10:00:26;;;;;;;24.50;20.65;;;;;;;;;;5083651;28;20038;-75
2023/03/16 10:02:51;;;;;;;24.95;19.73;;;;;;;;;;5084475;28;20026;-75
2023/03/16 10:05:19;;;;;;;18.63;16.35;;;;;;;;;;5096991;28;20451;-75
2023/03/16 10:08:00;;;;;;;17.40;14.70;;;;;;;;;;5092128;28;20048;-74
2023/03/16 10:10:25;;;;;;;24.17;20.58;;;;;;;;;;5092011;28;20486;-76
2023/03/16 10:12:52;;;;;;;19.30;17.23;;;;;;;;;;5096012;28;20023;-73
2023/03/16 10:15:22;;;;;;;24.90;21.08;;;;;;;;;;5093429;28;20372;-78
2023/03/16 10:17:53;;;;;;;15.68;14.07;;;;;;;;;;5093188;28;20486;-73
2023/03/16 10:20:19;;;;;;;15.02;13.20;;;;;;;;;;5092266;28;20043;-75
2023/03/16 10:22:46;;;;;;;16.70;13.68;;;;;;;;;;5093873;28;20019;-74
2023/03/16 10:25:11;;;;;;;22.15;18.13;;;;;;;;;;5096444;28;20039;-76
2023/03/16 10:27:38;;;;;;;19.10;15.80;;;;;;;;;;5094702;28;20024;-74
2023/03/16 10:30:24;;;;;;;22.65;20.25;;;;;;;;;;5082734;28;20033;-73
2023/03/16 10:32:50;;;;;;;23.40;19.73;;;;;;;;;;5092159;28;20346;-75
2023/03/16 10:35:15;;;;;;;23.67;21.23;;;;;;;;;;5092395;28;20024;-73
2023/03/16 10:37:40;;;;;;;22.52;19.50;;;;;;;;;;5095651;28;20051;-75
2023/03/16 10:40:08;;;;;;;28.30;22.70;;;;;;;;;;5095332;28;20026;-74
2023/03/16 10:42:34;;;;;;;24.40;21.80;;;;;;;;;;5093318;28;20439;-74
2023/03/16 10:45:00;;;;;;;23.17;20.67;;;;;;;;;;5094056;28;20055;-76
2023/03/16 10:47:30;;;;;;;22.88;20.45;;;;;;;;;;5092927;28;20515;-75
2023/03/16 10:49:55;;;;;;;26.88;22.92;;;;;;;;;;5091666;28;20043;-76
2023/03/16 10:52:37;;;;;;;30.75;27.05;;;;;;;;;;5093011;28;20510;-76
2023/03/16 10:55:09;;;;;;;25.52;22.05;;;;;;;;;;5090936;28;20805;-75
2023/03/16 10:57:36;;;;;;;18.52;15.48;;;;;;;;;;5092947;28;20092;-74
2023/03/16 11:00:13;;;;;;;27.90;24.10;;;;;;;;;;5092148;28;20023;-75
2023/03/16 11:02:39;;;;;;;22.35;18.95;;;;;;;;;;5095682;28;20033;-74
2023/03/16 11:05:14;;;;;;;28.70;23.00;;;;;;;;;;5093997;28;20031;-74
2023/03/16 11:07:46;;;;;;;36.55;28.52;;;;;;;;;;5096360;28;20052;-74
2023/03/16 11:10:23;;;;;;;29.92;25.60;;;;;;;;;;5093804;28;20031;-74
2023/03/16 11:12:49;;;;;;;24.98;22.08;;;;;;;;;;5094571;28;20015;-74
2023/03/16 11:15:16;;;;;;;25.33;22.17;;;;;;;;;;5093399;28;20107;-74
2023/03/16 11:17:46;;;;;;;21.98;19.63;;;;;;;;;;5093650;28;20020;-74
2023/03/16 11:20:16;;;;;;;20.25;18.13;;;;;;;;;;5094685;28;20727;-75
2023/03/16 11:22:44;;;;;;;19.48;14.88;;;;;;;;;;5094814;28;20424;-74
2023/03/16 11:25:12;;;;;;;20.60;16.75;;;;;;;;;;5093547;28;20118;-75
2023/03/16 11:27:40;;;;;;;32.67;29.13;;;;;;;;;;5095093;28;20937;-74
2023/03/16 11:30:05;;;;;;;40.63;32.47;;;;;;;;;;5093897;28;20036;-74
2023/03/16 11:32:40;;;;;;;50.10;35.80;;;;;;;;;;5093915;28;20032;-74
2023/03/16 11:35:15;;;;;;;35.70;31.80;;;;;;;;;;5097308;28;20030;-75
2023/03/16 11:37:49;;;;;;;21.73;19.42;;;;;;;;;;5092069;28;20020;-74
2023/03/16 11:40:21;;;;;;;20.45;18.02;;;;;;;;;;5096715;28;20447;-74
2023/03/16 11:42:46;;;;;;;20.70;18.50;;;;;;;;;;5097653;28;20035;-74
2023/03/16 11:45:38;;;;;;;21.02;17.85;;;;;;;;;;5098111;28;20016;-75
2023/03/16 11:48:13;;;;;;;28.90;23.52;;;;;;;;;;5073860;28;20085;-75
2023/03/16 11:51:05;;;;;;;24.80;18.50;;;;;;;;;;5093474;28;20032;-75
2023/03/16 11:53:34;;;;;;;14.18;12.75;;;;;;;;;;5095391;28;20093;-74
2023/03/16 11:56:03;;;;;;;23.20;18.10;;;;;;;;;;5096272;28;20447;-74
2023/03/16 11:58:37;;;;;;;21.65;19.35;;;;;;;;;;5095715;28;20181;-75
2023/03/16 12:01:25;;;;;;;17.10;15.43;;;;;;;;;;5097463;28;20467;-74
2023/03/16 12:04:09;;;;;;;21.65;18.85;;;;;;;;;;5095283;28;20418;-75
2023/03/16 12:06:53;;;;;;;19.15;17.15;;;;;;;;;;5095828;28;20440;-75
2023/03/16 12:09:24;;;;;;;25.63;22.05;;;;;;;;;;5096029;28;20028;-73
2023/03/16 12:11:53;;;;;;;27.40;22.42;;;;;;;;;;5098096;28;20032;-75
2023/03/16 12:14:31;;;;;;;18.08;16.05;;;;;;;;;;5096560;28;20028;-75
2023/03/16 12:17:04;;;;;;;18.80;16.80;;;;;;;;;;5098063;28;20038;-74
2023/03/16 12:19:29;;;;;;;17.17;15.43;;;;;;;;;;5096259;28;20028;-74
2023/03/16 12:22:14;;;;;;;22.83;19.08;;;;;;;;;;5094065;28;20047;-74
2023/03/16 12:24:44;;;;;;;23.50;20.13;;;;;;;;;;5093459;28;20027;-75
2023/03/16 12:27:21;;;;;;;27.88;23.13;;;;;;;;;;5096988;28;20023;-74
2023/03/16 12:29:57;;;;;;;29.63;24.48;;;;;;;;;;5094330;28;20350;-76
2023/03/16 12:32:33;;;;;;;19.75;16.23;;;;;;;;;;5099518;28;20428;-75
2023/03/16 12:35:08;;;;;;;24.23;18.73;;;;;;;;;;5097814;28;20120;-77
2023/03/16 12:37:34;;;;;;;15.20;13.70;;;;;;;;;;5098570;28;20042;-78
2023/03/16 12:40:39;;;;;;;24.95;22.30;;;;;;;;;;5095880;28;20103;-75
2023/03/16 12:43:23;;;;;;;24.35;21.75;;;;;;;;;;5035484;28;20095;-75
2023/03/16 12:46:00;;;;;;;23.35;20.25;;;;;;;;;;5039384;28;20024;-75
2023/03/16 12:48:26;;;;;;;19.98;18.08;;;;;;;;;;5034568;28;20037;-74
2023/03/16 12:51:02;;;;;;;20.00;17.33;;;;;;;;;;5035371;28;20037;-75
2023/03/16 12:53:37;;;;;;;18.90;16.95;;;;;;;;;;5036627;28;20353;-75
2023/03/16 12:56:04;;;;;;;20.52;18.35;;;;;;;;;;5035428;28;20033;-75
2023/03/16 12:58:30;;;;;;;13.43;12.13;;;;;;;;;;5038172;28;20032;-76
2023/03/16 13:00:58;;;;;;;15.05;13.32;;;;;;;;;;5037028;28;20041;-77
2023/03/16 13:03:24;;;;;;;19.45;15.93;;;;;;;;;;5037983;28;20033;-76
2023/03/16 13:05:51;;;;;;;21.85;19.27;;;;;;;;;;5036556;28;20040;-77
2023/03/16 13:08:18;;;;;;;23.08;19.20;;;;;;;;;;5037108;28;20049;-76
2023/03/16 13:10:59;;;;;;;21.23;19.00;;;;;;;;;;5038491;28;20112;-75
2023/03/16 13:13:26;;;;;;;18.27;16.20;;;;;;;;;;5055371;28;20075;-76
2023/03/16 13:16:01;;;;;;;25.40;22.70;;;;;;;;;;5095230;28;20350;-75
2023/03/16 13:18:33;;;;;;;17.38;15.60;;;;;;;;;;5095514;28;20411;-76
2023/03/16 13:21:00;;;;;;;15.38;13.77;;;;;;;;;;5096554;28;20027;-78
2023/03/16 13:23:48;;;;;;;18.90;16.55;;;;;;;;;;5094010;28;20088;-75
2023/03/16 13:26:15;;;;;;;21.52;17.67;;;;;;;;;;5089763;28;20039;-75
2023/03/16 13:28:44;;;;;;;29.30;24.25;;;;;;;;;;5098328;28;20027;-76
2023/03/16 13:31:27;;;;;;;17.08;14.82;;;;;;;;;;5094874;28;20062;-76
2023/03/16 13:33:55;;;;;;;25.70;22.67;;;;;;;;;;5096080;28;20026;-75
2023/03/16 13:36:21;;;;;;;23.10;17.95;;;;;;;;;;5096951;28;20055;-75
2023/03/16 13:39:16;;;;;;;22.20;18.00;;;;;;;;;;5092828;28;20132;-73
2023/03/16 13:41:41;;;;;;;25.58;19.40;;;;;;;;;;5033025;28;20068;-74
2023/03/16 13:44:13;;;;;;;17.42;15.13;;;;;;;;;;5032612;28;20067;-74
2023/03/16 13:46:39;;;;;;;31.92;25.98;;;;;;;;;;5029976;28;20376;-76
2023/03/16 13:49:04;;;;;;;29.55;24.63;;;;;;;;;;5048861;28;20024;-75
2023/03/16 13:51:32;;;;;;;17.95;16.00;;;;;;;;;;5030171;28;20040;-76
2023/03/16 13:54:03;;;;;;;26.25;20.75;;;;;;;;;;5028553;28;20033;-74
2023/03/16 13:56:31;;;;;;;20.30;16.52;;;;;;;;;;5033050;28;20032;-74
2023/03/16 13:58:57;;;;;;;32.00;24.90;;;;;;;;;;5012729;28;20069;-76
2023/03/16 14:01:26;;;;;;;16.13;13.63;;;;;;;;;;5030147;28;20646;-79
2023/03/16 14:03:54;;;;;;;17.95;16.05;;;;;;;;;;5029323;28;20020;-75
2023/03/16 14:06:25;;;;;;;28.08;24.95;;;;;;;;;;5034654;28;20092;-74
2023/03/16 14:08:52;;;;;;;29.70;26.60;;;;;;;;;;5031920;28;20032;-75
2023/03/16 14:11:18;;;;;;;22.23;18.10;;;;;;;;;;5030274;28;20041;-75
2023/03/16 14:13:49;;;;;;;18.15;16.00;;;;;;;;;;5030972;28;20391;-74
2023/03/16 14:16:16;;;;;;;17.95;15.75;;;;;;;;;;5030115;28;21075;-75
2023/03/16 14:18:41;;;;;;;20.92;17.55;;;;;;;;;;5078667;28;20038;-76
2023/03/16 14:21:14;;;;;;;25.27;22.42;;;;;;;;;;5092449;28;20039;-75
2023/03/16 14:23:41;;;;;;;23.50;21.00;;;;;;;;;;5094220;28;20031;-75
2023/03/16 14:26:14;;;;;;;20.55;18.45;;;;;;;;;;5081538;28;20015;-75
2023/03/16 14:28:41;;;;;;;20.60;18.50;;;;;;;;;;5086356;28;20028;-75